Time;durP1;ratioP1;P1;durP2;ratioP2;P2;SDS_P1;SDS_P2;PMS_P1;PMS_P2;Temp;Humidity;BMP_temperature;BMP_pressure;BME280_temperature;BME280_humidity;BME280_pressure;Samples;Min_cycle;Max_cycle;Signal;HPM_P1;HPM_P2
2023/06/12 00:02:23;;;;;;;6.47;3.57;;;;;;;18.52;100.00;98614.41;5054482;28;20204;-77
2023/06/12 00:04:54;;;;;;;6.73;3.43;;;;;;;18.53;100.00;98621.19;5054283;28;20221;-77
2023/06/12 00:07:22;;;;;;;6.50;3.33;;;;;;;18.41;100.00;98619.97;5054635;28;20188;-77
2023/06/12 00:09:49;;;;;;;7.50;3.73;;;;;;;18.43;100.00;98618.03;5053964;28;20201;-77
2023/06/12 00:12:16;;;;;;;7.97;3.80;;;;;;;18.44;100.00;98617.88;5053749;28;20206;-77
2023/06/12 00:14:42;;;;;;;5.07;4.03;;;;;;;18.39;100.00;98620.16;5053890;28;20296;-77
2023/06/12 00:17:09;;;;;;;8.53;4.03;;;;;;;18.39;100.00;98627.13;5053002;28;20265;-77
2023/06/12 00:19:37;;;;;;;5.70;4.10;;;;;;;18.41;100.00;98627.72;5055077;28;20712;-77
2023/06/12 00:22:05;;;;;;;8.30;4.43;;;;;;;18.41;100.00;98631.13;5053438;28;20221;-77
2023/06/12 00:24:32;;;;;;;5.97;3.90;;;;;;;18.40;100.00;98624.34;5053296;28;20207;-78
2023/06/12 00:26:58;;;;;;;7.03;4.33;;;;;;;18.33;100.00;98634.59;5053439;28;20238;-77
2023/06/12 00:29:25;;;;;;;7.53;4.17;;;;;;;18.33;100.00;98623.44;5054077;28;20213;-77
2023/06/12 00:31:52;;;;;;;8.60;4.13;;;;;;;18.33;100.00;98636.38;5052463;28;20216;-78
2023/06/12 00:34:19;;;;;;;7.43;4.50;;;;;;;18.28;100.00;98629.13;5054588;28;20227;-77
2023/06/12 00:36:47;;;;;;;6.30;4.07;;;;;;;18.25;100.00;98624.28;5054871;28;20222;-77
2023/06/12 00:39:15;;;;;;;10.53;4.20;;;;;;;18.20;100.00;98634.34;5053986;28;20211;-78
2023/06/12 00:41:42;;;;;;;7.20;4.00;;;;;;;18.20;100.00;98631.75;5055258;28;20230;-77
2023/06/12 00:44:09;;;;;;;6.70;4.40;;;;;;;18.10;100.00;98636.34;5055271;28;20208;-77
2023/06/12 00:46:37;;;;;;;7.07;4.67;;;;;;;18.14;100.00;98634.22;5055677;28;20221;-77
2023/06/12 00:49:04;;;;;;;8.47;4.37;;;;;;;18.12;100.00;98636.16;5053768;28;20207;-77
2023/06/12 00:51:33;;;;;;;12.37;4.57;;;;;;;18.07;100.00;98631.53;5053788;28;20228;-77
2023/06/12 00:54:00;;;;;;;8.97;4.47;;;;;;;18.00;100.00;98636.53;5054675;28;20238;-77
2023/06/12 00:56:28;;;;;;;5.83;4.10;;;;;;;17.94;100.00;98632.03;5053703;28;20232;-77
2023/06/12 00:58:55;;;;;;;6.07;4.20;;;;;;;17.91;100.00;98634.16;5053736;28;20558;-77
2023/06/12 01:01:25;;;;;;;5.80;3.90;;;;;;;17.84;100.00;98632.25;5054232;28;20230;-77
2023/06/12 01:03:57;;;;;;;7.67;3.90;;;;;;;17.81;100.00;98642.16;5054370;28;20214;-77
2023/06/12 01:06:34;;;;;;;6.10;4.00;;;;;;;17.82;100.00;98631.63;5054027;28;20755;-77
2023/06/12 01:09:08;;;;;;;8.50;4.63;;;;;;;17.83;100.00;98642.75;5054487;28;20283;-77
2023/06/12 01:11:37;;;;;;;7.20;4.00;;;;;;;17.81;100.00;98640.34;5053222;28;20235;-77
2023/06/12 01:14:04;;;;;;;6.80;4.50;;;;;;;17.80;100.00;98643.94;5054775;28;20782;-77
2023/06/12 01:16:31;;;;;;;6.73;3.90;;;;;;;17.84;100.00;98646.97;5053433;28;20226;-77
2023/06/12 01:19:00;;;;;;;7.27;3.83;;;;;;;17.78;100.00;98643.28;5052787;28;20214;-77
2023/06/12 01:21:32;;;;;;;4.73;3.43;;;;;;;17.79;100.00;98638.91;5054218;28;20235;-77
2023/06/12 01:24:30;;;;;;;6.90;4.43;;;;;;;17.73;100.00;98635.19;5053203;28;20210;-77
2023/06/12 01:27:23;;;;;;;9.90;3.80;;;;;;;17.70;100.00;98640.69;5052629;28;20221;-77
2023/06/12 01:30:07;;;;;;;5.87;3.63;;;;;;;17.65;100.00;98637.78;5050366;28;20239;-77
2023/06/12 01:32:39;;;;;;;7.97;4.33;;;;;;;17.67;100.00;98641.03;5051746;28;20744;-77
2023/06/12 01:35:11;;;;;;;6.40;4.00;;;;;;;17.57;100.00;98633.47;5053258;28;20228;-77
2023/06/12 01:37:43;;;;;;;5.17;3.67;;;;;;;17.61;100.00;98646.88;5053461;28;20209;-77
2023/06/12 01:40:12;;;;;;;6.47;4.17;;;;;;;17.60;100.00;98648.66;5053567;28;20222;-77
2023/06/12 01:42:39;;;;;;;7.30;4.60;;;;;;;17.62;100.00;98653.63;5053561;28;20213;-77
2023/06/12 01:45:07;;;;;;;5.93;3.80;;;;;;;17.58;100.00;98655.75;5052362;28;20804;-77
2023/06/12 01:47:36;;;;;;;6.23;4.43;;;;;;;17.54;100.00;98656.25;5051609;28;20209;-77
2023/06/12 01:50:04;;;;;;;9.57;3.77;;;;;;;17.49;100.00;98653.38;5052782;28;20224;-77
2023/06/12 01:52:32;;;;;;;8.63;4.23;;;;;;;17.47;100.00;98650.13;5052358;28;20212;-77
2023/06/12 01:55:00;;;;;;;6.33;3.67;;;;;;;17.47;100.00;98656.09;5052470;28;20775;-77
2023/06/12 01:57:27;;;;;;;5.73;4.00;;;;;;;17.47;100.00;98650.94;5053503;28;20201;-77
2023/06/12 01:59:54;;;;;;;8.10;4.23;;;;;;;17.39;100.00;98651.78;5054154;28;20199;-77
2023/06/12 02:02:21;;;;;;;8.30;4.23;;;;;;;17.32;100.00;98657.75;5052600;28;20204;-77
2023/06/12 02:04:50;;;;;;;12.00;4.30;;;;;;;17.29;100.00;98656.31;5052429;28;20200;-77
2023/06/12 02:07:17;;;;;;;7.77;4.63;;;;;;;17.27;100.00;98655.66;5050708;28;20574;-77
2023/06/12 02:09:44;;;;;;;6.07;3.93;;;;;;;17.25;100.00;98654.22;5050841;28;20220;-77
2023/06/12 02:12:11;;;;;;;6.93;4.17;;;;;;;17.23;100.00;98649.22;5050551;28;20684;-77
2023/06/12 02:14:38;;;;;;;8.20;4.40;;;;;;;17.19;100.00;98647.91;5051287;28;20691;-77
2023/06/12 02:17:05;;;;;;;6.03;4.03;;;;;;;17.14;100.00;98658.75;5049897;28;20596;-77
2023/06/12 02:19:32;;;;;;;6.80;4.10;;;;;;;17.11;100.00;98663.44;5050063;28;20211;-77
2023/06/12 02:22:00;;;;;;;6.90;4.13;;;;;;;17.03;100.00;98669.41;5053861;28;20249;-77
2023/06/12 02:24:29;;;;;;;7.37;4.60;;;;;;;16.93;100.00;98664.44;5053995;28;20223;-77
2023/06/12 02:26:56;;;;;;;6.60;4.23;;;;;;;16.95;100.00;98672.78;5054157;28;20247;-77
2023/06/12 02:29:23;;;;;;;5.90;3.83;;;;;;;16.95;100.00;98672.00;5053813;28;20203;-77
2023/06/12 02:31:50;;;;;;;7.70;4.87;;;;;;;16.98;100.00;98672.47;5054067;28;20623;-77
2023/06/12 02:34:16;;;;;;;8.17;4.37;;;;;;;16.92;100.00;98678.28;5054139;28;20677;-77
2023/06/12 02:36:46;;;;;;;9.10;5.23;;;;;;;16.92;100.00;98672.31;5054370;28;20539;-76
2023/06/12 02:39:15;;;;;;;7.23;4.33;;;;;;;16.90;100.00;98669.91;5053631;28;20262;-77
2023/06/12 02:41:42;;;;;;;7.03;4.53;;;;;;;16.85;100.00;98681.69;5054242;28;20233;-77
2023/06/12 02:44:09;;;;;;;8.80;4.90;;;;;;;16.89;100.00;98682.97;5053168;28;20199;-77
2023/06/12 02:46:51;;;;;;;6.93;4.53;;;;;;;16.88;100.00;98691.69;5053826;28;20669;-77
2023/06/12 02:49:18;;;;;;;10.13;5.00;;;;;;;16.85;100.00;98687.66;5053550;28;20208;-77
2023/06/12 02:51:45;;;;;;;7.53;4.90;;;;;;;16.84;100.00;98691.22;5053416;28;20232;-76
2023/06/12 02:54:13;;;;;;;7.60;4.47;;;;;;;16.85;100.00;98690.25;5053620;28;20234;-77
2023/06/12 02:56:41;;;;;;;8.30;4.57;;;;;;;16.83;100.00;98693.94;5054360;28;20276;-77
2023/06/12 02:59:10;;;;;;;9.50;5.13;;;;;;;16.81;100.00;98701.84;5053613;28;20200;-77
2023/06/12 03:01:41;;;;;;;6.63;4.30;;;;;;;16.82;100.00;98703.47;5052187;28;20243;-77
2023/06/12 03:04:09;;;;;;;7.80;4.30;;;;;;;16.84;100.00;98706.72;5052832;28;20214;-77
2023/06/12 03:06:36;;;;;;;6.93;4.07;;;;;;;16.81;100.00;98706.19;5056370;28;20314;-77
2023/06/12 03:09:03;;;;;;;7.93;4.67;;;;;;;16.83;100.00;98710.25;5054172;28;20209;-76
2023/06/12 03:11:33;;;;;;;9.73;4.83;;;;;;;16.85;100.00;98705.72;5055175;28;20227;-77
2023/06/12 03:14:00;;;;;;;6.83;4.07;;;;;;;16.91;100.00;98712.03;5053755;28;20230;-77
2023/06/12 03:16:27;;;;;;;7.33;4.63;;;;;;;16.95;100.00;98719.28;5053421;28;20614;-77
2023/06/12 03:18:54;;;;;;;8.33;4.63;;;;;;;16.96;100.00;98731.25;5053848;28;20730;-77
2023/06/12 03:21:21;;;;;;;12.67;4.83;;;;;;;16.89;100.00;98722.50;5054036;28;20226;-77
2023/06/12 03:23:48;;;;;;;8.17;4.47;;;;;;;16.93;100.00;98731.56;5053810;28;20196;-77
2023/06/12 03:26:15;;;;;;;7.90;5.20;;;;;;;16.96;100.00;98733.81;5053028;28;20226;-77
2023/06/12 03:28:46;;;;;;;7.90;4.60;;;;;;;16.98;100.00;98729.28;5053284;28;20207;-77
2023/06/12 03:31:13;;;;;;;11.40;5.10;;;;;;;16.98;100.00;98731.06;5053086;28;20219;-77
2023/06/12 03:33:39;;;;;;;8.80;5.17;;;;;;;17.02;100.00;98734.16;5054149;28;20211;-77
2023/06/12 03:36:07;;;;;;;7.77;4.60;;;;;;;17.02;100.00;98731.56;5054074;28;20229;-78
2023/06/12 03:38:33;;;;;;;8.80;4.77;;;;;;;17.06;100.00;98728.50;5054664;28;20204;-77
2023/06/12 03:41:00;;;;;;;8.67;5.07;;;;;;;17.09;100.00;98722.19;5055947;28;20238;-77
2023/06/12 03:43:27;;;;;;;9.87;5.20;;;;;;;17.05;100.00;98723.50;5054498;28;20718;-77
2023/06/12 03:45:55;;;;;;;8.83;5.47;;;;;;;17.06;100.00;98725.91;5054064;28;20227;-77
2023/06/12 03:48:22;;;;;;;13.17;5.10;;;;;;;17.03;100.00;98730.59;5054063;28;20199;-77
2023/06/12 03:50:48;;;;;;;11.13;6.20;;;;;;;17.01;100.00;98735.09;5055430;28;20215;-77
2023/06/12 03:53:15;;;;;;;14.77;6.50;;;;;;;16.95;100.00;98729.59;5053931;28;20195;-77
2023/06/12 03:55:42;;;;;;;10.60;6.03;;;;;;;17.01;100.00;98735.91;5055081;28;20720;-77
2023/06/12 03:58:10;;;;;;;11.60;6.93;;;;;;;16.96;100.00;98730.44;5054933;28;20204;-77
2023/06/12 04:00:37;;;;;;;12.57;7.13;;;;;;;16.97;100.00;98740.59;5055316;28;20213;-77
2023/06/12 04:03:08;;;;;;;15.87;6.73;;;;;;;17.03;100.00;98738.34;5053248;28;20285;-77
2023/06/12 04:05:35;;;;;;;13.73;6.93;;;;;;;16.98;100.00;98729.28;5054930;28;20223;-77
2023/06/12 04:08:02;;;;;;;12.80;6.43;;;;;;;17.00;100.00;98730.94;5054681;28;20200;-78
2023/06/12 04:10:29;;;;;;;13.03;6.97;;;;;;;17.03;100.00;98731.41;5053709;28;20233;-77
2023/06/12 04:12:57;;;;;;;12.43;6.80;;;;;;;17.02;100.00;98719.47;5053506;28;20199;-77
2023/06/12 04:15:23;;;;;;;17.23;7.03;;;;;;;17.01;100.00;98727.34;5054108;28;20688;-77
2023/06/12 04:17:50;;;;;;;14.63;7.93;;;;;;;17.00;100.00;98730.94;5054834;28;20204;-77
2023/06/12 04:20:18;;;;;;;19.70;7.43;;;;;;;17.03;100.00;98730.59;5054844;28;20305;-77
2023/06/12 04:22:47;;;;;;;13.77;7.43;;;;;;;17.01;100.00;98733.31;5054696;28;20664;-77
2023/06/12 04:25:14;;;;;;;14.87;7.27;;;;;;;17.05;100.00;98739.00;5054687;28;20253;-77
2023/06/12 04:27:42;;;;;;;14.93;6.73;;;;;;;17.04;100.00;98729.63;5053642;28;20591;-77
2023/06/12 04:30:10;;;;;;;14.07;7.33;;;;;;;17.09;100.00;98732.53;5052451;28;20415;-77
2023/06/12 04:32:37;;;;;;;15.53;8.07;;;;;;;17.11;100.00;98738.34;5053861;28;20583;-77
2023/06/12 04:35:05;;;;;;;16.07;7.13;;;;;;;17.16;100.00;98751.56;5052620;28;20240;-77
2023/06/12 04:37:33;;;;;;;14.77;7.70;;;;;;;17.19;100.00;98746.09;5053476;28;20638;-77
2023/06/12 04:40:01;;;;;;;14.73;7.17;;;;;;;17.20;100.00;98742.56;5053629;28;20482;-77
2023/06/12 04:42:28;;;;;;;13.83;6.77;;;;;;;17.18;100.00;98747.06;5054502;28;20588;-77
2023/06/12 04:44:54;;;;;;;12.40;6.87;;;;;;;17.25;100.00;98748.06;5052908;28;20598;-77
2023/06/12 04:47:23;;;;;;;13.97;6.80;;;;;;;17.29;100.00;98751.91;5053471;28;20240;-77
2023/06/12 04:49:57;;;;;;;10.83;6.53;;;;;;;17.33;100.00;98747.22;5053121;28;20242;-77
2023/06/12 04:52:24;;;;;;;13.03;6.90;;;;;;;17.34;100.00;98749.66;5054579;28;20246;-77
2023/06/12 04:54:53;;;;;;;13.17;7.40;;;;;;;17.40;100.00;98754.19;5053197;28;20228;-77
2023/06/12 04:57:20;;;;;;;13.63;7.60;;;;;;;17.36;100.00;98752.06;5053095;28;20659;-77
2023/06/12 04:59:48;;;;;;;16.33;7.13;;;;;;;17.34;100.00;98749.66;5053253;28;20201;-77
2023/06/12 05:02:15;;;;;;;12.90;7.23;;;;;;;17.36;100.00;98747.69;5054353;28;20334;-77
2023/06/12 05:04:43;;;;;;;13.80;7.23;;;;;;;17.37;100.00;98745.94;5051901;28;20203;-77
2023/06/12 05:07:16;;;;;;;13.63;7.70;;;;;;;17.35;100.00;98751.25;5052489;28;20568;-77
2023/06/12 05:09:44;;;;;;;16.00;7.67;;;;;;;17.39;100.00;98762.91;5056231;28;20204;-78
2023/06/12 05:12:12;;;;;;;14.43;7.70;;;;;;;17.43;100.00;98759.00;5056475;28;20266;-78
2023/06/12 05:14:40;;;;;;;15.67;7.37;;;;;;;17.42;100.00;98757.41;5053636;28;20690;-77
2023/06/12 05:17:07;;;;;;;14.00;7.57;;;;;;;17.36;100.00;98762.41;5056488;28;20266;-77
2023/06/12 05:19:36;;;;;;;14.90;8.30;;;;;;;17.39;100.00;98757.75;5053757;28;20249;-78
2023/06/12 05:22:03;;;;;;;14.70;7.20;;;;;;;17.39;100.00;98757.75;5054342;28;20239;-77
2023/06/12 05:24:30;;;;;;;15.57;7.67;;;;;;;17.42;100.00;98757.41;5055578;28;20208;-78
2023/06/12 05:26:57;;;;;;;15.40;8.30;;;;;;;17.39;100.00;98757.75;5055027;28;20717;-77
2023/06/12 05:29:26;;;;;;;13.93;7.93;;;;;;;17.48;100.00;98757.72;5052710;28;20640;-77
2023/06/12 05:31:53;;;;;;;15.47;7.60;;;;;;;17.52;100.00;98756.44;5055110;28;20278;-77
2023/06/12 05:34:20;;;;;;;15.07;7.80;;;;;;;17.58;100.00;98751.41;5053955;28;20226;-77
2023/06/12 05:36:46;;;;;;;17.57;7.27;;;;;;;17.59;100.00;98745.25;5055628;28;20220;-77
2023/06/12 05:39:13;;;;;;;16.73;7.80;;;;;;;17.65;100.00;98757.53;5055413;28;20204;-77
2023/06/12 05:41:41;;;;;;;15.30;7.77;;;;;;;17.75;100.00;98757.34;5054643;28;20701;-77
2023/06/12 05:44:09;;;;;;;13.37;7.67;;;;;;;17.82;100.00;98755.75;5054693;28;20209;-78
2023/06/12 05:46:37;;;;;;;14.93;7.57;;;;;;;17.90;100.00;98748.97;5055921;28;20217;-78
2023/06/12 05:49:04;;;;;;;11.70;6.87;;;;;;;17.93;100.00;98751.22;5057193;28;20205;-78
2023/06/12 05:51:31;;;;;;;12.63;7.47;;;;;;;17.97;100.00;98760.25;5052659;28;20248;-78
2023/06/12 05:53:58;;;;;;;13.07;7.20;;;;;;;18.03;100.00;98754.41;5052393;28;20202;-77
2023/06/12 05:56:25;;;;;;;13.10;7.87;;;;;;;17.98;100.00;98757.50;5055275;28;20243;-77
2023/06/12 05:58:52;;;;;;;15.27;7.27;;;;;;;18.06;100.00;98754.06;5058027;28;20588;-77
2023/06/12 06:01:22;;;;;;;14.77;8.10;;;;;;;18.05;100.00;98749.88;5060099;28;20625;-77
2023/06/12 06:03:51;;;;;;;14.70;6.97;;;;;;;18.06;100.00;98759.22;5060753;28;20228;-78
2023/06/12 06:06:18;;;;;;;15.70;8.07;;;;;;;18.14;100.00;98761.81;5059300;28;20229;-77
2023/06/12 06:08:46;;;;;;;12.43;8.20;;;;;;;18.17;100.00;98756.28;5058760;28;20193;-77
2023/06/12 06:11:13;;;;;;;15.23;7.93;;;;;;;18.22;100.00;98754.00;5057009;28;20225;-77
2023/06/12 06:13:42;;;;;;;13.37;7.73;;;;;;;18.27;100.00;98762.09;5055360;28;20198;-77
2023/06/12 06:16:09;;;;;;;15.57;8.37;;;;;;;18.32;100.00;98758.97;5057969;28;20237;-78
2023/06/12 06:18:36;;;;;;;14.57;7.67;;;;;;;18.33;100.00;98756.22;5057430;28;20629;-77
2023/06/12 06:21:05;;;;;;;13.70;7.30;;;;;;;18.44;100.00;98762.84;5054899;28;20261;-77
2023/06/12 06:23:32;;;;;;;11.83;7.47;;;;;;;18.47;100.00;98761.66;5054603;28;20211;-77
2023/06/12 06:25:59;;;;;;;14.97;8.23;;;;;;;18.49;100.00;98760.50;5056438;28;20614;-77
2023/06/12 06:28:26;;;;;;;13.80;7.93;;;;;;;18.50;100.00;98759.56;5056899;28;20269;-77
2023/06/12 06:30:53;;;;;;;13.37;6.97;;;;;;;18.49;100.00;98764.88;5055740;28;20223;-78
2023/06/12 06:33:20;;;;;;;14.43;7.20;;;;;;;18.52;100.00;98769.72;5055849;28;20216;-77
2023/06/12 06:35:47;;;;;;;15.80;7.50;;;;;;;18.51;100.00;98773.31;5056122;28;20449;-77
2023/06/12 06:38:20;;;;;;;13.50;6.90;;;;;;;18.56;100.00;98768.44;5055881;28;20212;-77
2023/06/12 06:40:47;;;;;;;13.93;7.33;;;;;;;18.55;100.00;98782.34;5055987;28;20227;-77
2023/06/12 06:43:14;;;;;;;13.83;7.27;;;;;;;18.66;100.00;98784.56;5055813;28;20682;-77
2023/06/12 06:45:41;;;;;;;13.23;7.33;;;;;;;18.61;100.00;98780.84;5054164;28;20234;-77
2023/06/12 06:48:08;;;;;;;10.60;6.47;;;;;;;18.69;100.00;98786.00;5055876;28;20207;-77
2023/06/12 06:50:35;;;;;;;12.57;7.20;;;;;;;18.68;100.00;98786.97;5055765;28;20228;-77
2023/06/12 06:53:02;;;;;;;11.07;7.10;;;;;;;18.71;100.00;98789.22;5054371;28;20230;-77
2023/06/12 06:55:31;;;;;;;12.57;7.00;;;;;;;18.77;100.00;98786.00;5055114;28;20691;-77
2023/06/12 06:57:57;;;;;;;16.83;9.07;;;;;;;18.82;100.00;98785.47;5053854;28;20254;-76
2023/06/12 07:00:24;;;;;;;38.00;17.30;;;;;;;18.89;100.00;98787.19;5053365;28;20716;-76
2023/06/12 07:02:52;;;;;;;15.77;8.97;;;;;;;19.00;100.00;98788.59;5056197;28;20711;-77
2023/06/12 07:05:20;;;;;;;12.23;6.70;;;;;;;18.97;100.00;98794.94;5057379;28;20227;-77
2023/06/12 07:07:48;;;;;;;11.13;6.30;;;;;;;18.96;100.00;98788.13;5055084;28;20638;-77
2023/06/12 07:10:15;;;;;;;10.93;6.27;;;;;;;18.86;100.00;98791.94;5057397;28;20307;-78
2023/06/12 07:12:43;;;;;;;10.17;6.60;;;;;;;18.86;100.00;98791.94;5057467;28;20212;-77
2023/06/12 07:15:10;;;;;;;10.83;6.10;;;;;;;18.98;100.00;98791.34;5058450;28;20228;-77
2023/06/12 07:17:37;;;;;;;13.00;6.80;;;;;;;19.02;100.00;98798.78;5058095;28;20695;-77
2023/06/12 07:20:06;;;;;;;11.00;6.30;;;;;;;19.02;100.00;98797.00;5058257;28;20236;-77
2023/06/12 07:22:33;;;;;;;11.67;6.70;;;;;;;19.10;100.00;98793.53;5056220;28;20211;-77
2023/06/12 07:25:00;;;;;;;11.33;6.50;;;;;;;19.07;100.00;98794.69;5056630;28;20232;-77
2023/06/12 07:27:26;;;;;;;10.97;6.73;;;;;;;19.20;100.00;98794.94;5055048;28;20660;-77
2023/06/12 07:29:55;;;;;;;12.83;6.20;;;;;;;19.38;100.00;98796.44;5056359;28;20239;-77
2023/06/12 07:32:22;;;;;;;11.53;6.40;;;;;;;19.46;100.00;98798.97;5059263;28;20659;-78
2023/06/12 07:34:50;;;;;;;10.07;6.37;;;;;;;19.55;100.00;98797.91;5056625;28;20258;-77
2023/06/12 07:37:20;;;;;;;12.87;6.07;;;;;;;19.73;100.00;98799.41;5054409;28;20720;-77
2023/06/12 07:39:47;;;;;;;11.03;6.47;;;;;;;19.87;100.00;98798.63;5053171;28;20249;-77
2023/06/12 07:42:14;;;;;;;11.33;5.90;;;;;;;20.06;100.00;98805.84;5057452;28;20719;-77
2023/06/12 07:44:42;;;;;;;13.17;6.73;;;;;;;20.11;100.00;98811.31;5055884;28;20561;-77
2023/06/12 07:47:10;;;;;;;10.77;6.63;;;;;;;20.15;100.00;98813.56;5057060;28;20300;-77
2023/06/12 07:49:37;;;;;;;12.97;6.43;;;;;;;20.16;100.00;98812.56;5055231;28;20672;-77
2023/06/12 07:52:04;;;;;;;10.23;6.40;;;;;;;20.15;100.00;98809.16;5054290;28;20211;-77
2023/06/12 07:54:31;;;;;;;12.07;6.57;;;;;;;20.17;100.00;98809.00;5055651;28;20210;-77
2023/06/12 07:56:58;;;;;;;11.87;5.97;;;;;;;20.15;100.00;98803.97;5054944;28;20241;-78
2023/06/12 07:59:24;;;;;;;14.37;6.03;;;;;;;20.29;100.00;98812.75;5056654;28;20194;-78
2023/06/12 08:01:51;;;;;;;10.97;6.27;;;;;;;20.43;100.00;98806.75;5056745;28;20717;-78
2023/06/12 08:04:19;;;;;;;8.70;5.70;;;;;;;20.57;100.00;98807.75;5057152;28;20663;-78
2023/06/12 08:06:47;;;;;;;8.57;5.70;;;;;;;20.65;100.00;98815.41;5056314;28;20221;-78
2023/06/12 08:09:14;;;;;;;10.50;5.77;;;;;;;20.74;100.00;98813.50;5054174;28;20206;-78
2023/06/12 08:11:41;;;;;;;9.73;6.13;;;;;;;20.88;100.00;98819.66;5060254;28;20233;-78
2023/06/12 08:14:08;;;;;;;12.80;5.87;;;;;;;20.98;100.00;98820.19;5058006;28;20595;-78
2023/06/12 08:16:35;;;;;;;8.00;5.40;;;;;;;21.09;100.00;98811.91;5056083;28;20330;-77
2023/06/12 08:19:02;;;;;;;12.90;5.70;;;;;;;21.14;100.00;98813.94;5058412;28;20204;-78
2023/06/12 08:21:30;;;;;;;10.10;5.47;;;;;;;21.34;100.00;98811.53;5057840;28;20221;-78
2023/06/12 08:23:57;;;;;;;8.03;4.93;;;;;;;21.58;100.00;98810.34;5054862;28;20199;-77
2023/06/12 08:26:24;;;;;;;8.47;5.53;;;;;;;21.59;100.00;98817.19;5056140;28;20231;-77
2023/06/12 08:28:51;;;;;;;8.17;4.93;;;;;;;21.74;100.00;98823.09;5054951;28;20209;-77
2023/06/12 08:31:18;;;;;;;11.43;5.63;;;;;;;22.02;100.00;98822.25;5053696;28;20211;-78
2023/06/12 08:33:45;;;;;;;9.23;5.70;;;;;;;22.05;100.00;98819.28;5054254;28;20674;-78
2023/06/12 08:36:12;;;;;;;10.33;5.60;;;;;;;22.09;100.00;98820.50;5055704;28;20231;-78
2023/06/12 08:38:40;;;;;;;76.13;31.40;;;;;;;22.23;100.00;98834.44;5055483;28;20211;-79
2023/06/12 08:41:07;;;;;;;14.55;8.75;;;;;;;22.31;100.00;98829.88;5054099;28;20230;-78
2023/06/12 08:43:34;;;;;;;9.33;5.20;;;;;;;22.25;100.00;98832.44;5053101;28;20203;-76
2023/06/12 08:46:04;;;;;;;9.63;5.82;;;;;;;22.20;100.00;98829.63;5053033;28;20219;-77
2023/06/12 08:48:31;;;;;;;7.90;5.03;;;;;;;22.13;99.12;98826.94;5051153;28;20199;-77
2023/06/12 08:51:00;;;;;;;12.02;5.60;;;;;;;22.20;100.00;98820.00;5053955;28;20220;-78
2023/06/12 08:53:27;;;;;;;8.13;5.70;;;;;;;22.36;100.00;98824.88;5055662;28;20207;-78
2023/06/12 08:55:56;;;;;;;7.22;4.95;;;;;;;22.29;97.19;98818.84;5056710;28;20235;-78
2023/06/12 08:58:23;;;;;;;8.57;5.57;;;;;;;22.35;98.71;98818.06;5061257;28;20207;-78
2023/06/12 09:00:50;;;;;;;8.25;5.20;;;;;;;22.44;99.11;98816.09;5056815;28;20222;-78
2023/06/12 09:03:17;;;;;;;7.07;4.97;;;;;;;22.67;97.05;98810.59;5057755;28;20287;-78
2023/06/12 09:05:45;;;;;;;8.73;5.40;;;;;;;22.87;96.71;98815.06;5054066;28;20232;-77
2023/06/12 09:08:11;;;;;;;7.85;5.43;;;;;;;22.94;98.09;98810.66;5056307;28;20218;-78
2023/06/12 09:10:39;;;;;;;7.60;5.00;;;;;;;23.36;97.81;98808.72;5053731;28;20810;-78
2023/06/12 09:13:09;;;;;;;7.70;4.72;;;;;;;23.79;92.38;98814.38;5057737;28;20573;-78
2023/06/12 09:15:37;;;;;;;5.55;4.40;;;;;;;24.07;93.01;98808.91;5055712;28;20226;-77
2023/06/12 09:18:10;;;;;;;7.10;4.63;;;;;;;24.20;87.29;98810.66;5055513;28;20265;-78
2023/06/12 09:20:37;;;;;;;5.75;4.30;;;;;;;24.40;87.31;98805.38;5054731;28;20781;-78
2023/06/12 09:23:04;;;;;;;6.65;4.47;;;;;;;24.55;86.29;98807.75;5059321;28;20229;-78
2023/06/12 09:25:35;;;;;;;7.20;5.00;;;;;;;24.62;83.01;98804.09;5054580;28;20223;-77
2023/06/12 09:28:03;;;;;;;5.43;4.22;;;;;;;24.84;82.52;98803.78;5052286;28;20199;-79
2023/06/12 09:30:32;;;;;;;8.60;5.07;;;;;;;25.05;85.93;98802.66;5056147;28;20889;-78
2023/06/12 09:33:00;;;;;;;5.78;3.80;;;;;;;25.28;85.52;98795.09;5056547;28;20199;-78
2023/06/12 09:35:27;;;;;;;5.70;4.30;;;;;;;25.71;84.75;98796.13;5055306;28;20273;-78
2023/06/12 09:37:54;;;;;;;6.18;4.38;;;;;;;25.79;81.13;98793.22;5054572;28;20241;-78
2023/06/12 09:40:21;;;;;;;5.47;4.00;;;;;;;26.05;82.38;98791.38;5054783;28;20306;-78
2023/06/12 09:42:50;;;;;;;5.47;3.97;;;;;;;26.24;83.65;98790.38;5055376;28;20214;-78
2023/06/12 09:45:18;;;;;;;5.38;3.92;;;;;;;26.28;77.92;98791.50;5054013;28;20220;-77
2023/06/12 09:47:48;;;;;;;5.55;4.25;;;;;;;26.33;78.74;98783.81;5052896;28;20199;-77
2023/06/12 09:50:16;;;;;;;6.43;3.67;;;;;;;26.55;80.24;98785.97;5049450;28;20227;-77
2023/06/12 09:52:44;;;;;;;5.00;3.85;;;;;;;26.64;76.96;98779.38;5049710;28;20199;-76
2023/06/12 09:55:13;;;;;;;5.20;3.83;;;;;;;26.85;76.53;98776.28;5049540;28;20676;-77
2023/06/12 09:57:43;;;;;;;6.97;4.32;;;;;;;26.90;75.96;98785.28;5049758;28;20289;-77
2023/06/12 10:00:13;;;;;;;4.03;3.53;;;;;;;27.07;78.22;98778.38;5049932;28;20223;-77
2023/06/12 10:02:42;;;;;;;5.30;3.85;;;;;;;27.09;71.31;98781.59;5050237;28;20196;-77
2023/06/12 10:05:17;;;;;;;5.40;4.00;;;;;;;27.12;75.46;98770.63;5049998;28;20273;-77
2023/06/12 10:07:48;;;;;;;6.20;4.20;;;;;;;27.27;78.10;98773.63;5050318;28;20269;-77
2023/06/12 10:10:16;;;;;;;6.97;3.97;;;;;;;27.35;71.69;98771.72;5049406;28;20752;-77
2023/06/12 10:12:44;;;;;;;5.53;3.72;;;;;;;27.14;72.58;98776.47;5049881;28;20628;-77
2023/06/12 10:15:13;;;;;;;5.53;4.18;;;;;;;27.34;70.37;98770.09;5049452;28;20222;-77
2023/06/12 10:17:41;;;;;;;4.75;3.50;;;;;;;27.43;70.34;98781.88;5049680;28;20235;-77
2023/06/12 10:20:10;;;;;;;4.22;3.53;;;;;;;27.47;70.09;98778.56;5049243;28;20219;-77
2023/06/12 10:22:38;;;;;;;7.78;3.75;;;;;;;27.50;72.52;98782.56;5049660;28;20219;-77
2023/06/12 10:25:07;;;;;;;5.80;3.50;;;;;;;27.39;70.79;98770.22;5052798;28;20226;-78
2023/06/12 10:27:34;;;;;;;4.50;3.45;;;;;;;27.43;71.51;98768.72;5055471;28;20204;-78
2023/06/12 10:30:01;;;;;;;4.05;3.30;;;;;;;27.56;68.12;98781.66;5052450;28;20242;-78
2023/06/12 10:32:31;;;;;;;5.93;3.60;;;;;;;27.48;70.02;98755.72;5056170;28;20652;-78
2023/06/12 10:34:58;;;;;;;4.35;3.28;;;;;;;27.11;68.17;98771.63;5053591;28;20219;-78
2023/06/12 10:37:28;;;;;;;5.15;3.10;;;;;;;26.88;71.44;98775.03;5053112;28;20749;-78
2023/06/12 10:40:10;;;;;;;6.00;3.28;;;;;;;27.00;70.00;98775.06;5053473;28;20207;-78
2023/06/12 10:42:45;;;;;;;3.75;2.97;;;;;;;27.25;69.81;98778.31;5054115;28;20210;-78
2023/06/12 10:45:16;;;;;;;8.68;3.50;;;;;;;27.31;68.05;98769.56;5056820;28;20243;-78
2023/06/12 10:47:59;;;;;;;5.07;3.40;;;;;;;27.36;72.56;98765.44;5061282;28;20205;-77
2023/06/12 10:50:26;;;;;;;3.78;3.05;;;;;;;27.22;70.10;98765.63;5055732;28;20250;-78
2023/06/12 10:52:55;;;;;;;3.88;3.03;;;;;;;27.08;70.06;98766.84;5057600;28;20200;-78
2023/06/12 10:55:31;;;;;;;4.45;3.35;;;;;;;27.16;70.06;98766.53;5057479;28;20238;-77
2023/06/12 10:57:59;;;;;;;4.63;3.28;;;;;;;27.22;67.12;98770.09;5055946;28;20603;-78
2023/06/12 11:00:31;;;;;;;3.75;2.88;;;;;;;27.32;70.59;98770.34;5056820;28;20212;-78
2023/06/12 11:02:59;;;;;;;8.20;3.55;;;;;;;27.27;68.96;98752.63;5058755;28;20279;-78
2023/06/12 11:05:27;;;;;;;4.85;3.35;;;;;;;27.31;65.35;98761.69;5057003;28;20220;-78
2023/06/12 11:07:58;;;;;;;6.32;3.13;;;;;;;27.30;67.44;98752.19;5060820;28;20200;-78
2023/06/12 11:10:27;;;;;;;4.35;2.97;;;;;;;27.51;72.13;98744.75;5057931;28;20231;-78
2023/06/12 11:12:55;;;;;;;3.83;3.00;;;;;;;27.83;72.25;98739.97;5056782;28;20680;-78
2023/06/12 11:15:22;;;;;;;5.32;3.17;;;;;;;27.68;65.80;98748.28;5057534;28;20284;-78
2023/06/12 11:17:49;;;;;;;3.90;3.10;;;;;;;27.66;64.44;98750.34;5057613;28;20285;-78
2023/06/12 11:20:18;;;;;;;4.65;3.28;;;;;;;27.58;66.73;98753.34;5057536;28;20227;-78
2023/06/12 11:22:46;;;;;;;4.57;2.90;;;;;;;27.56;63.96;98752.75;5056205;28;20694;-78
2023/06/12 11:25:13;;;;;;;4.55;3.20;;;;;;;27.38;65.55;98752.88;5055654;28;20219;-78
2023/06/12 11:27:41;;;;;;;4.18;3.08;;;;;;;27.26;65.75;98745.81;5059393;28;20261;-78
2023/06/12 11:30:12;;;;;;;5.20;3.33;;;;;;;27.31;69.32;98748.56;5059555;28;20254;-78